Terminal Aerodrome Forecast
Issued by NWS

Home | Current Version | Previous Version | Text Only | Print | Product List | Glossary On
Versions: 1 2 3 4 5 6 7 8 9 10 11 12 13 14 15 16
000
FTUS45 KGJT 240533
TAFDRO
TAF
KDRO 240533Z 2406/2506 VRB03KT P6SM VCSH OVC080
      TEMPO 2406/2410 -SHRA BKN060 OVC080
     FM241400 10004KT P6SM BKN060
     FM242000 31010KT P6SM SCT080 BKN150
     FM250300 04004KT P6SM FEW120=

USA.gov is the U.S. government's official web portal to all federal, state and local government web resources and services.